createdAt,value
2017-11-24T00:00:24.713Z,3.50
2017-11-24T00:02:52.333Z,2.97
2017-11-24T00:05:20.710Z,2.20
2017-11-24T00:07:48.338Z,3.10
2017-11-24T00:10:15.924Z,2.87
2017-11-24T00:12:43.485Z,2.73
2017-11-24T00:15:11.091Z,1.70
2017-11-24T00:17:38.676Z,3.00
2017-11-24T00:20:06.263Z,2.90
2017-11-24T00:22:33.881Z,2.30
2017-11-24T00:25:01.441Z,2.90
2017-11-24T00:27:29.033Z,2.50
2017-11-24T00:29:58.101Z,2.77
2017-11-24T00:32:25.665Z,2.90
2017-11-24T00:34:53.260Z,3.40
2017-11-24T00:40:00.378Z,2.20
2017-11-24T00:42:27.942Z,2.43
2017-11-24T00:44:55.529Z,2.20
2017-11-24T00:47:23.080Z,3.00
2017-11-24T00:49:50.664Z,2.83
2017-11-24T00:52:18.225Z,2.57
2017-11-24T00:54:45.805Z,3.17
2017-11-24T00:57:14.165Z,3.10
2017-11-24T00:59:41.726Z,2.70
2017-11-24T01:02:09.385Z,2.73
2017-11-24T01:04:37.066Z,3.20
2017-11-24T01:07:04.665Z,2.80
2017-11-24T01:09:32.234Z,3.27
2017-11-24T01:11:59.825Z,2.70
2017-11-24T01:14:27.508Z,3.17
2017-11-24T01:16:55.100Z,2.90
2017-11-24T01:19:22.682Z,3.07
2017-11-24T01:21:50.245Z,2.77
2017-11-24T01:24:17.848Z,2.53
2017-11-24T01:26:46.257Z,3.10
2017-11-24T01:29:13.815Z,2.80
2017-11-24T01:31:41.412Z,3.23
2017-11-24T01:34:09.091Z,2.77
2017-11-24T01:36:37.541Z,1.47
2017-11-24T01:39:05.096Z,2.37
2017-11-24T01:41:32.649Z,2.67
2017-11-24T01:44:00.253Z,1.60
2017-11-24T01:46:28.609Z,1.83
2017-11-24T01:48:56.234Z,2.50
2017-11-24T01:51:23.817Z,1.60
2017-11-24T01:53:51.379Z,2.70
2017-11-24T01:56:18.965Z,2.37
2017-11-24T01:58:47.306Z,2.57
2017-11-24T02:01:14.896Z,2.47
2017-11-24T02:03:43.977Z,2.97
2017-11-24T02:06:11.625Z,2.63
2017-11-24T02:08:39.185Z,3.10
2017-11-24T02:11:06.737Z,3.07
2017-11-24T02:13:34.324Z,2.70
2017-11-24T02:16:01.894Z,3.20
2017-11-24T02:18:30.281Z,2.57
2017-11-24T02:20:58.596Z,2.33
2017-11-24T02:23:26.152Z,1.60
2017-11-24T02:25:53.745Z,3.13
2017-11-24T02:28:21.480Z,2.47
2017-11-24T02:30:49.036Z,2.63
2017-11-24T02:33:16.633Z,2.77
2017-11-24T02:35:44.988Z,2.97
2017-11-24T02:38:12.546Z,2.67
2017-11-24T02:40:40.112Z,2.77
2017-11-24T02:43:07.724Z,2.33
2017-11-24T02:45:35.347Z,2.60
2017-11-24T02:48:03.708Z,3.10
2017-11-24T02:50:31.266Z,2.87
2017-11-24T02:52:58.884Z,3.00
2017-11-24T02:55:26.440Z,1.90
2017-11-24T02:57:54.102Z,3.30
2017-11-24T03:00:21.647Z,3.10
2017-11-24T03:02:49.201Z,2.80
2017-11-24T03:05:16.792Z,3.17
2017-11-24T03:07:44.348Z,3.13
2017-11-24T03:10:11.953Z,3.40
2017-11-24T03:12:40.561Z,3.07
2017-11-24T03:15:08.135Z,2.87
2017-11-24T03:17:35.717Z,2.73
2017-11-24T03:20:03.420Z,2.60
2017-11-24T03:22:31.776Z,2.23
2017-11-24T03:24:59.394Z,2.93
2017-11-24T03:27:26.992Z,3.13
2017-11-24T03:29:54.572Z,2.50
2017-11-24T03:32:23.021Z,3.07
2017-11-24T03:34:50.584Z,3.20
2017-11-24T03:37:18.144Z,2.80
2017-11-24T03:39:45.876Z,3.07
2017-11-24T03:42:13.436Z,2.30
2017-11-24T03:44:41.190Z,2.80
2017-11-24T03:47:08.764Z,2.83
2017-11-24T03:49:36.409Z,2.27
2017-11-24T03:52:03.959Z,2.87
2017-11-24T03:54:31.517Z,3.00
2017-11-24T03:56:59.107Z,2.80
2017-11-24T03:59:26.692Z,3.23
2017-11-24T04:01:54.288Z,3.20
2017-11-24T04:04:21.853Z,1.10
2017-11-24T04:06:49.436Z,2.60
2017-11-24T04:09:16.988Z,2.03
2017-11-24T04:11:44.573Z,1.73
2017-11-24T04:14:12.133Z,2.80
2017-11-24T04:16:39.717Z,2.37
2017-11-24T04:19:08.132Z,1.77
2017-11-24T04:21:35.691Z,1.80
2017-11-24T04:24:03.315Z,2.40
2017-11-24T04:26:31.646Z,2.87
2017-11-24T04:28:59.261Z,3.10
2017-11-24T04:31:27.683Z,2.83
2017-11-24T04:33:55.236Z,2.17
2017-11-24T04:36:22.820Z,1.40
2017-11-24T04:38:50.495Z,2.53
2017-11-24T04:41:18.308Z,2.67
2017-11-24T04:43:45.872Z,2.67
2017-11-24T04:46:13.420Z,1.20
2017-11-24T04:48:41.016Z,2.70
2017-11-24T04:51:08.767Z,2.37
2017-11-24T04:53:36.413Z,2.63
2017-11-24T04:56:03.964Z,3.43
2017-11-24T04:58:31.600Z,3.10
2017-11-24T05:00:59.953Z,3.00
2017-11-24T05:03:27.521Z,3.17
2017-11-24T05:05:55.936Z,3.67
2017-11-24T05:08:23.508Z,3.30
2017-11-24T05:10:51.173Z,3.50
2017-11-24T05:13:18.804Z,3.20
2017-11-24T05:15:46.365Z,3.17
2017-11-24T05:18:13.965Z,2.93
2017-11-24T05:20:41.560Z,2.90
2017-11-24T05:23:09.920Z,3.20
2017-11-24T05:25:37.528Z,2.83
2017-11-24T05:28:05.101Z,2.70
2017-11-24T05:30:32.694Z,2.57
2017-11-24T05:33:01.233Z,2.80
2017-11-24T05:35:28.789Z,3.23
2017-11-24T05:37:56.446Z,3.00
2017-11-24T05:40:24.026Z,3.47
2017-11-24T05:42:51.617Z,3.33
2017-11-24T05:45:20.000Z,3.00
2017-11-24T05:47:48.325Z,3.40
2017-11-24T05:50:15.936Z,3.77
2017-11-24T05:52:43.524Z,3.50
2017-11-24T05:55:11.092Z,3.20
2017-11-24T05:57:38.677Z,3.30
2017-11-24T06:00:06.246Z,3.40
2017-11-24T06:02:34.614Z,3.03
2017-11-24T06:05:02.174Z,3.20
2017-11-24T06:07:29.816Z,3.30
2017-11-24T06:09:57.380Z,3.00
2017-11-24T06:12:24.935Z,2.93
2017-11-24T06:14:52.545Z,2.97
2017-11-24T06:17:20.879Z,3.23
2017-11-24T06:19:48.451Z,3.90
2017-11-24T06:22:16.119Z,3.03
2017-11-24T06:24:43.757Z,3.37
2017-11-24T06:27:11.500Z,5.13
2017-11-24T06:29:39.071Z,3.47
2017-11-24T06:32:06.656Z,2.90
2017-11-24T06:34:34.213Z,3.40
2017-11-24T06:37:01.920Z,3.70
2017-11-24T06:39:29.509Z,3.10
2017-11-24T06:41:57.091Z,3.77
2017-11-24T06:44:24.680Z,3.90
2017-11-24T06:46:53.021Z,3.43
2017-11-24T06:49:20.645Z,3.40
2017-11-24T06:51:48.207Z,3.33
2017-11-24T06:54:15.863Z,3.80
2017-11-24T06:56:43.529Z,4.20
2017-11-24T06:59:11.113Z,3.47
2017-11-24T07:01:38.857Z,3.60
2017-11-24T07:04:06.441Z,3.60
2017-11-24T07:06:34.117Z,4.07
2017-11-24T07:09:01.729Z,4.03
2017-11-24T07:11:29.492Z,3.33
2017-11-24T07:13:57.143Z,3.87
2017-11-24T07:16:24.768Z,3.80
2017-11-24T07:18:53.136Z,3.87
2017-11-24T07:21:20.701Z,3.40
2017-11-24T07:23:49.805Z,3.40
2017-11-24T07:26:18.120Z,2.70
2017-11-24T07:28:45.686Z,4.03
2017-11-24T07:31:13.280Z,2.77
2017-11-24T07:33:40.844Z,4.00
2017-11-24T07:36:08.450Z,3.40
2017-11-24T07:38:36.017Z,2.07
2017-11-24T07:41:03.616Z,2.87
2017-11-24T07:43:31.176Z,2.20
2017-11-24T07:45:58.773Z,2.30
2017-11-24T07:48:26.352Z,1.90
2017-11-24T07:50:54.008Z,3.37
2017-11-24T07:53:21.588Z,2.90
2017-11-24T07:55:49.152Z,2.80
2017-11-24T07:58:16.789Z,2.13
2017-11-24T08:00:44.446Z,2.90
2017-11-24T08:03:12.052Z,2.23
2017-11-24T08:05:39.640Z,3.40
2017-11-24T08:08:07.973Z,1.73
2017-11-24T08:10:35.560Z,1.27
2017-11-24T08:13:03.962Z,2.50
2017-11-24T08:15:31.544Z,3.00
2017-11-24T08:17:59.197Z,3.40
2017-11-24T08:20:26.922Z,3.77
2017-11-24T08:22:55.239Z,2.60
2017-11-24T08:25:22.894Z,3.30
2017-11-24T08:27:50.617Z,3.00
2017-11-24T08:30:18.945Z,3.40
2017-11-24T08:32:46.532Z,2.90
2017-11-24T08:35:15.644Z,2.00
2017-11-24T08:37:43.244Z,2.40
2017-11-24T08:40:10.836Z,3.23
2017-11-24T08:42:38.387Z,2.63
2017-11-24T08:45:05.968Z,4.07
2017-11-24T08:47:39.317Z,2.90
2017-11-24T08:50:06.915Z,3.53
2017-11-24T08:52:34.468Z,2.37
2017-11-24T08:55:02.030Z,2.70
2017-11-24T08:57:29.628Z,2.63
2017-11-24T08:59:58.073Z,2.43
2017-11-24T09:02:25.641Z,3.00
2017-11-24T09:04:53.245Z,3.50
2017-11-24T09:07:20.905Z,2.23
2017-11-24T09:09:48.456Z,2.97
2017-11-24T09:12:16.053Z,1.83
2017-11-24T09:14:43.623Z,2.43
2017-11-24T09:17:12.700Z,2.60
2017-11-24T09:19:40.288Z,2.13
2017-11-24T09:22:07.995Z,1.67
2017-11-24T09:24:35.616Z,2.70
2017-11-24T09:27:03.930Z,2.93
2017-11-24T09:29:31.496Z,1.87
2017-11-24T09:31:59.261Z,4.10
2017-11-24T09:34:26.817Z,3.23
2017-11-24T09:36:54.397Z,3.17
2017-11-24T09:39:21.961Z,2.37
2017-11-24T09:41:49.565Z,2.60
2017-11-24T09:44:17.965Z,2.03
2017-11-24T09:46:45.542Z,2.63
2017-11-24T09:49:13.137Z,2.67
2017-11-24T09:51:41.457Z,2.33
2017-11-24T09:54:09.067Z,2.40
2017-11-24T09:56:36.632Z,2.50
2017-11-24T09:59:04.192Z,2.90
2017-11-24T10:01:31.865Z,2.90
2017-11-24T10:04:00.212Z,3.27
2017-11-24T10:06:28.529Z,2.63
2017-11-24T10:08:56.129Z,3.13
2017-11-24T10:11:23.767Z,2.33
2017-11-24T10:13:51.340Z,2.40
2017-11-24T10:16:19.106Z,2.63
2017-11-24T10:18:46.677Z,3.27
2017-11-24T10:21:19.824Z,3.17
2017-11-24T10:23:47.381Z,2.63
2017-11-24T10:26:14.976Z,2.77
2017-11-24T10:28:42.640Z,2.90
2017-11-24T10:31:10.208Z,3.07
2017-11-24T10:33:37.829Z,3.20
2017-11-24T10:36:05.493Z,2.73
2017-11-24T10:38:33.098Z,2.53
2017-11-24T10:41:00.656Z,2.80
2017-11-24T10:43:28.633Z,3.10
2017-11-24T10:45:56.208Z,2.70
2017-11-24T10:48:24.580Z,2.90
2017-11-24T10:50:52.916Z,2.40
2017-11-24T10:53:20.509Z,2.27
2017-11-24T10:55:48.876Z,3.00
2017-11-24T10:58:16.609Z,2.33
2017-11-24T11:00:44.170Z,2.43
2017-11-24T11:03:11.801Z,2.80
2017-11-24T11:05:39.357Z,2.83
2017-11-24T11:08:06.985Z,2.60
2017-11-24T11:10:35.350Z,2.00
2017-11-24T11:13:02.957Z,2.00
2017-11-24T11:15:30.625Z,2.23
2017-11-24T11:17:58.209Z,2.73
2017-11-24T11:20:25.805Z,2.10
2017-11-24T11:22:54.156Z,2.70
2017-11-24T11:25:22.477Z,2.00
2017-11-24T11:27:50.082Z,1.77
2017-11-24T11:30:17.652Z,1.60
2017-11-24T11:32:45.210Z,1.67
2017-11-24T11:35:12.802Z,2.00
2017-11-24T11:37:40.491Z,2.37
2017-11-24T11:40:08.089Z,2.57
2017-11-24T11:42:35.657Z,2.40
2017-11-24T11:45:04.016Z,2.47
2017-11-24T11:47:31.572Z,2.30
2017-11-24T11:49:59.165Z,2.70
2017-11-24T11:52:27.492Z,2.13
2017-11-24T11:54:55.107Z,1.63
2017-11-24T11:57:23.632Z,2.90
2017-11-24T11:59:51.236Z,2.80
2017-11-24T12:02:19.551Z,2.63
2017-11-24T12:04:47.146Z,2.90
2017-11-24T12:07:14.733Z,1.50
2017-11-24T12:09:43.089Z,2.23
2017-11-24T12:12:10.693Z,2.20
2017-11-24T12:14:38.244Z,1.90
2017-11-24T12:17:05.869Z,2.70
2017-11-24T12:19:33.422Z,2.77
2017-11-24T12:22:01.780Z,1.50
2017-11-24T12:24:29.367Z,2.80
2017-11-24T12:26:56.925Z,2.77
2017-11-24T12:29:24.524Z,1.70
2017-11-24T12:31:52.113Z,2.00
2017-11-24T12:34:19.700Z,2.50
2017-11-24T12:36:47.308Z,2.53
2017-11-24T12:39:14.964Z,3.27
2017-11-24T12:41:42.584Z,2.93
2017-11-24T12:44:10.925Z,3.40
2017-11-24T12:46:39.301Z,3.13
2017-11-24T12:49:06.881Z,2.63
2017-11-24T12:51:34.552Z,3.13
2017-11-24T12:54:02.127Z,3.30
2017-11-24T12:56:30.460Z,3.10
2017-11-24T12:58:58.092Z,2.60
2017-11-24T13:01:25.785Z,3.20
2017-11-24T13:03:53.537Z,2.60
2017-11-24T13:06:21.109Z,3.30
2017-11-24T13:08:48.669Z,3.43
2017-11-24T13:11:16.377Z,3.10
2017-11-24T13:13:44.220Z,3.17
2017-11-24T13:16:12.588Z,3.13
2017-11-24T13:18:40.156Z,3.60
2017-11-24T13:21:08.481Z,3.10
2017-11-24T13:23:36.084Z,3.43
2017-11-24T13:26:03.650Z,3.53
2017-11-24T13:28:32.028Z,3.40
2017-11-24T13:31:00.362Z,3.40
2017-11-24T13:33:27.932Z,3.50
2017-11-24T13:35:55.668Z,2.93
2017-11-24T13:38:23.224Z,3.43
2017-11-24T13:40:50.822Z,3.90
2017-11-24T13:43:18.391Z,3.10
2017-11-24T13:45:46.040Z,3.33
2017-11-24T13:48:13.656Z,2.97
2017-11-24T13:50:41.230Z,3.03
2017-11-24T13:53:08.938Z,3.63
2017-11-24T13:55:36.499Z,3.07
2017-11-24T13:58:04.914Z,3.10
2017-11-24T14:00:32.637Z,2.90
2017-11-24T14:03:02.349Z,3.60
2017-11-24T14:05:30.717Z,3.50
2017-11-24T14:07:58.276Z,2.97
2017-11-24T14:10:25.869Z,2.80
2017-11-24T14:12:53.429Z,3.20
2017-11-24T14:15:21.020Z,2.50
2017-11-24T14:17:48.569Z,3.63
2017-11-24T14:20:16.125Z,3.83
2017-11-24T14:22:43.722Z,2.30
2017-11-24T14:25:11.274Z,2.63
2017-11-24T14:27:38.869Z,2.37
2017-11-24T14:30:06.449Z,2.20
2017-11-24T14:32:34.041Z,2.40
2017-11-24T14:35:01.635Z,2.30
2017-11-24T14:37:30.013Z,2.03
2017-11-24T14:39:58.377Z,2.17
2017-11-24T14:42:25.940Z,1.27
2017-11-24T14:44:54.303Z,2.00
2017-11-24T14:47:23.389Z,1.13
2017-11-24T14:49:50.987Z,1.40
2017-11-24T14:52:19.445Z,1.60
2017-11-24T14:54:47.866Z,1.87
2017-11-24T14:57:15.478Z,1.30
2017-11-24T14:59:43.085Z,2.03
2017-11-24T15:02:10.656Z,2.17
2017-11-24T15:04:38.272Z,1.30
2017-11-24T15:07:06.729Z,2.17
2017-11-24T15:09:34.337Z,1.37
2017-11-24T15:12:01.897Z,2.10
2017-11-24T15:14:29.507Z,2.17
2017-11-24T15:16:57.842Z,1.83
2017-11-24T15:19:25.444Z,1.70
2017-11-24T15:21:53.806Z,1.93
2017-11-24T15:24:21.376Z,2.70
2017-11-24T15:26:51.249Z,2.63
2017-11-24T15:29:18.072Z,1.93
2017-11-24T15:31:45.648Z,3.80
2017-11-24T15:34:13.401Z,2.47
2017-11-24T15:36:40.972Z,2.90
2017-11-24T15:39:08.689Z,2.47
2017-11-24T15:41:37.048Z,3.07
2017-11-24T15:44:04.642Z,3.57
2017-11-24T15:46:32.210Z,2.80
2017-11-24T15:48:59.802Z,2.13
2017-11-24T15:51:27.406Z,3.30
2017-11-24T15:53:55.736Z,3.10
2017-11-24T15:56:23.374Z,3.03
2017-11-24T15:58:50.934Z,2.40
2017-11-24T16:01:18.613Z,2.40
2017-11-24T16:03:46.219Z,3.13
2017-11-24T16:06:14.618Z,2.70
2017-11-24T16:08:42.249Z,2.80
2017-11-24T16:11:10.674Z,3.00
2017-11-24T16:13:38.281Z,2.73
2017-11-24T16:16:06.618Z,2.63
2017-11-24T16:18:34.252Z,3.33
2017-11-24T16:21:01.852Z,2.80
2017-11-24T16:23:29.419Z,3.10
2017-11-24T16:25:57.022Z,2.57
2017-11-24T16:28:25.356Z,2.83
2017-11-24T16:30:53.013Z,2.90
2017-11-24T16:33:20.639Z,3.30
2017-11-24T16:35:48.248Z,3.50
2017-11-24T16:38:15.868Z,3.30
2017-11-24T16:40:43.447Z,3.00
2017-11-24T16:43:11.051Z,3.33
2017-11-24T16:45:39.435Z,3.00
2017-11-24T16:48:07.020Z,2.67
2017-11-24T16:50:34.578Z,3.13
2017-11-24T16:53:02.168Z,3.47
2017-11-24T16:55:29.881Z,3.40
2017-11-24T16:57:57.500Z,3.00
2017-11-24T17:00:25.092Z,2.47
2017-11-24T17:02:52.652Z,2.70
2017-11-24T17:05:20.265Z,2.40
2017-11-24T17:07:47.862Z,2.17
2017-11-24T17:10:16.217Z,3.87
2017-11-24T17:12:44.641Z,1.97
2017-11-24T17:15:12.234Z,2.10
2017-11-24T17:17:39.853Z,2.67
2017-11-24T17:20:07.419Z,2.00
2017-11-24T17:22:36.640Z,2.07
2017-11-24T17:25:04.232Z,2.00
2017-11-24T17:27:31.829Z,2.33
2017-11-24T17:29:59.404Z,2.30
2017-11-24T17:32:26.960Z,2.07
2017-11-24T17:34:54.579Z,1.67
2017-11-24T17:37:22.950Z,0.97
2017-11-24T17:39:51.334Z,2.30
2017-11-24T17:42:19.744Z,2.50
2017-11-24T17:44:47.343Z,2.83
2017-11-24T17:47:14.896Z,2.00
2017-11-24T17:49:42.461Z,2.00
2017-11-24T17:52:10.068Z,2.57
2017-11-24T17:54:37.638Z,2.37
2017-11-24T17:57:05.208Z,2.37
2017-11-24T17:59:32.842Z,2.33
2017-11-24T18:02:00.447Z,1.40
2017-11-24T18:04:28.178Z,1.77
2017-11-24T18:06:55.813Z,2.40
2017-11-24T18:09:23.405Z,1.20
2017-11-24T18:11:51.062Z,1.67
2017-11-24T18:14:18.656Z,1.53
2017-11-24T18:16:46.265Z,0.97
2017-11-24T18:19:13.853Z,1.00
2017-11-24T18:21:41.437Z,1.80
2017-11-24T18:24:10.590Z,1.80
2017-11-24T18:26:38.179Z,1.10
2017-11-24T18:29:05.748Z,1.73
2017-11-24T18:31:33.344Z,1.50
2017-11-24T18:34:00.933Z,1.43
2017-11-24T18:36:28.465Z,1.60
2017-11-24T18:38:56.100Z,1.60
2017-11-24T18:41:23.693Z,1.60
2017-11-24T18:43:51.361Z,0.97
2017-11-24T18:46:18.957Z,1.53
2017-11-24T18:48:46.529Z,1.00
2017-11-24T18:51:14.136Z,1.27
2017-11-24T18:53:41.797Z,1.53
2017-11-24T18:56:09.468Z,1.90
2017-11-24T18:58:37.238Z,1.37
2017-11-24T19:01:04.883Z,0.70
2017-11-24T19:03:32.504Z,1.47
2017-11-24T19:06:00.831Z,1.83
2017-11-24T19:08:28.558Z,2.00
2017-11-24T19:10:56.302Z,2.13
2017-11-24T19:13:24.631Z,2.00
2017-11-24T19:15:52.234Z,1.60
2017-11-24T19:18:19.795Z,1.80
2017-11-24T19:20:47.549Z,0.70
2017-11-24T19:23:15.123Z,1.90
2017-11-24T19:25:43.639Z,1.30
2017-11-24T19:28:11.231Z,2.10
2017-11-24T19:30:38.797Z,1.67
2017-11-24T19:33:06.526Z,2.20
2017-11-24T19:35:34.194Z,1.40
2017-11-24T19:38:01.861Z,1.50
2017-11-24T19:40:29.601Z,1.07
2017-11-24T19:42:57.169Z,1.70
2017-11-24T19:45:24.776Z,0.87
2017-11-24T19:47:53.241Z,2.53
2017-11-24T19:50:22.225Z,1.50
2017-11-24T19:52:48.736Z,1.70
2017-11-24T19:55:16.487Z,2.87
2017-11-24T19:57:44.226Z,4.60
2017-11-24T20:00:11.911Z,3.33
2017-11-24T20:02:39.619Z,2.03
2017-11-24T20:05:08.361Z,3.63
2017-11-24T20:07:36.224Z,4.60
2017-11-24T20:10:04.193Z,2.70
2017-11-24T20:12:32.362Z,2.50
2017-11-24T20:15:00.333Z,2.00
2017-11-24T20:17:28.307Z,2.30
2017-11-24T20:19:56.369Z,3.83
2017-11-24T20:22:24.440Z,3.00
2017-11-24T20:24:52.409Z,2.23
2017-11-24T20:27:20.477Z,2.27
2017-11-24T20:29:48.550Z,2.30
2017-11-24T20:32:16.517Z,2.43
2017-11-24T20:34:44.483Z,1.53
2017-11-24T20:37:12.555Z,1.87
2017-11-24T20:39:41.955Z,1.80
2017-11-24T20:42:09.931Z,1.73
2017-11-24T20:44:38.709Z,1.60
2017-11-24T20:47:07.393Z,1.83
2017-11-24T20:49:35.406Z,2.20
2017-11-24T20:52:03.637Z,2.00
2017-11-24T20:54:31.606Z,1.10
2017-11-24T20:56:59.674Z,1.60
2017-11-24T20:59:27.542Z,1.93
2017-11-24T21:01:55.418Z,1.50
2017-11-24T21:04:23.374Z,1.87
2017-11-24T21:06:51.240Z,1.93
2017-11-24T21:09:19.106Z,2.30
2017-11-24T21:11:46.970Z,1.60
2017-11-24T21:14:14.733Z,1.50
2017-11-24T21:16:42.403Z,1.60
2017-11-24T21:19:10.023Z,1.73
2017-11-24T21:21:38.415Z,1.70
2017-11-24T21:24:05.990Z,1.90
2017-11-24T21:26:33.601Z,1.70
2017-11-24T21:29:01.934Z,1.77
2017-11-24T21:31:29.629Z,1.80
2017-11-24T21:33:57.266Z,1.50
2017-11-24T21:36:24.906Z,1.50
2017-11-24T21:38:52.502Z,1.93
2017-11-24T21:41:20.081Z,1.90
2017-11-24T21:43:48.449Z,1.50
2017-11-24T21:46:16.034Z,2.33
2017-11-24T21:48:44.416Z,1.87
2017-11-24T21:51:12.035Z,2.37
2017-11-24T21:53:39.628Z,2.07
2017-11-24T21:56:08.000Z,1.83
2017-11-24T21:58:36.341Z,1.73
2017-11-24T22:01:03.971Z,1.97
2017-11-24T22:03:31.565Z,2.33
2017-11-24T22:05:59.125Z,1.70
2017-11-24T22:08:26.754Z,1.60
2017-11-24T22:10:54.333Z,1.90
2017-11-24T22:13:21.988Z,1.17
2017-11-24T22:15:49.557Z,1.97
2017-11-24T22:18:17.130Z,1.03
2017-11-24T22:20:45.505Z,1.83
2017-11-24T22:23:13.125Z,1.30
2017-11-24T22:25:40.733Z,1.20
2017-11-24T22:28:09.069Z,1.90
2017-11-24T22:30:36.689Z,1.80
2017-11-24T22:33:05.097Z,1.87
2017-11-24T22:35:33.345Z,2.30
2017-11-24T22:38:00.945Z,1.50
2017-11-24T22:40:28.699Z,1.47
2017-11-24T22:42:56.481Z,1.47
2017-11-24T22:45:24.161Z,1.00
2017-11-24T22:47:51.780Z,1.37
2017-11-24T22:50:19.352Z,0.97
2017-11-24T22:52:46.972Z,1.37
2017-11-24T22:55:14.587Z,1.57
2017-11-24T22:57:42.166Z,1.33
2017-11-24T23:00:09.754Z,0.90
2017-11-24T23:02:37.321Z,1.40
2017-11-24T23:05:04.912Z,1.53
2017-11-24T23:07:32.529Z,0.53
2017-11-24T23:10:00.124Z,0.93
2017-11-24T23:12:27.835Z,1.50
2017-11-24T23:14:56.347Z,1.50
2017-11-24T23:17:23.917Z,0.83
2017-11-24T23:19:51.518Z,1.23
2017-11-24T23:22:19.106Z,1.40
2017-11-24T23:24:46.716Z,1.03
2017-11-24T23:27:14.297Z,1.17
2017-11-24T23:29:42.659Z,1.50
2017-11-24T23:32:10.235Z,1.10
2017-11-24T23:34:38.633Z,1.70
2017-11-24T23:37:06.212Z,1.07
2017-11-24T23:39:33.776Z,1.10
2017-11-24T23:42:01.639Z,1.07
2017-11-24T23:44:29.205Z,0.70
2017-11-24T23:46:56.809Z,1.13
2017-11-24T23:49:24.541Z,1.23
2017-11-24T23:51:52.144Z,1.50
2017-11-24T23:54:20.489Z,1.63
2017-11-24T23:56:48.053Z,1.53
2017-11-24T23:59:15.696Z,0.90
